sensor_id;sensor_type;location;lat;lon;timestamp;pressure;altitude;pressure_sealevel;temperature;humidity
75891;BME280;64571;47.512;19.054;2023-06-10T00:00:44;100019.25;;;18.69;89.44
75891;BME280;64571;47.512;19.054;2023-06-10T00:03:49;100024.63;;;18.75;89.44
75891;BME280;64571;47.512;19.054;2023-06-10T00:06:52;100013.69;;;18.73;89.37
75891;BME280;64571;47.512;19.054;2023-06-10T00:09:56;100004.59;;;18.64;89.54
75891;BME280;64571;47.512;19.054;2023-06-10T00:12:59;100002.03;;;18.59;89.96
75891;BME280;64571;47.512;19.054;2023-06-10T00:16:02;100017.50;;;18.65;90.12
75891;BME280;64571;47.512;19.054;2023-06-10T00:19:06;100021.91;;;18.50;90.73
75891;BME280;64571;47.512;19.054;2023-06-10T00:22:10;100016.56;;;18.45;91.04
75891;BME280;64571;47.512;19.054;2023-06-10T00:25:13;100003.84;;;18.35;91.04
75891;BME280;64571;47.512;19.054;2023-06-10T00:28:16;100005.47;;;18.36;91.04
75891;BME280;64571;47.512;19.054;2023-06-10T00:31:18;100008.66;;;18.35;91.28
75891;BME280;64571;47.512;19.054;2023-06-10T00:34:21;100020.06;;;18.26;91.34
75891;BME280;64571;47.512;19.054;2023-06-10T00:37:23;100015.41;;;18.18;91.54
75891;BME280;64571;47.512;19.054;2023-06-10T00:40:26;100003.31;;;18.02;91.44
75891;BME280;64571;47.512;19.054;2023-06-10T00:43:28;100025.44;;;18.03;91.74
75891;BME280;64571;47.512;19.054;2023-06-10T00:46:31;100006.16;;;17.89;91.61
75891;BME280;64571;47.512;19.054;2023-06-10T00:49:35;100027.59;;;17.94;91.71
75891;BME280;64571;47.512;19.054;2023-06-10T00:52:38;100021.75;;;17.87;91.55
75891;BME280;64571;47.512;19.054;2023-06-10T00:55:41;100034.66;;;17.88;91.63
75891;BME280;64571;47.512;19.054;2023-06-10T00:58:44;100017.44;;;17.77;91.46
75891;BME280;64571;47.512;19.054;2023-06-10T01:01:47;100031.72;;;17.84;91.47
75891;BME280;64571;47.512;19.054;2023-06-10T01:04:49;100028.44;;;17.82;91.41
75891;BME280;64571;47.512;19.054;2023-06-10T01:08:01;100014.84;;;17.72;91.34
75891;BME280;64571;47.512;19.054;2023-06-10T01:11:08;100020.34;;;17.68;91.57
75891;BME280;64571;47.512;19.054;2023-06-10T01:14:14;100013.47;;;17.66;92.12
75891;BME280;64571;47.512;19.054;2023-06-10T01:17:19;100030.09;;;17.71;92.58
75891;BME280;64571;47.512;19.054;2023-06-10T01:20:21;100029.50;;;17.78;92.36
75891;BME280;64571;47.512;19.054;2023-06-10T01:23:25;100027.88;;;17.77;92.28
75891;BME280;64571;47.512;19.054;2023-06-10T01:26:32;100031.03;;;17.75;92.22
75891;BME280;64571;47.512;19.054;2023-06-10T01:29:41;100011.81;;;17.65;92.24
75891;BME280;64571;47.512;19.054;2023-06-10T01:32:50;100025.88;;;17.65;92.34
75891;BME280;64571;47.512;19.054;2023-06-10T01:35:56;100027.16;;;17.67;92.15
75891;BME280;64571;47.512;19.054;2023-06-10T01:39:00;100010.44;;;17.59;92.24
75891;BME280;64571;47.512;19.054;2023-06-10T01:42:05;100030.09;;;17.71;91.69
75891;BME280;64571;47.512;19.054;2023-06-10T01:45:10;100029.03;;;17.63;91.72
75891;BME280;64571;47.512;19.054;2023-06-10T01:48:13;100006.50;;;17.48;91.94
75891;BME280;64571;47.512;19.054;2023-06-10T01:51:17;100006.81;;;17.46;91.90
75891;BME280;64571;47.512;19.054;2023-06-10T01:54:20;100009.87;;;17.41;92.05
75891;BME280;64571;47.512;19.054;2023-06-10T01:57:22;100009.19;;;17.44;91.98
75891;BME280;64571;47.512;19.054;2023-06-10T02:00:25;100029.53;;;17.53;91.86
75891;BME280;64571;47.512;19.054;2023-06-10T02:03:28;100027.91;;;17.52;91.84
75891;BME280;64571;47.512;19.054;2023-06-10T02:06:30;100033.63;;;17.56;91.73
75891;BME280;64571;47.512;19.054;2023-06-10T02:09:33;100006.72;;;17.42;91.68
75891;BME280;64571;47.512;19.054;2023-06-10T02:12:37;100031.28;;;17.58;91.56
75891;BME280;64571;47.512;19.054;2023-06-10T02:15:40;100030.72;;;17.52;91.73
75891;BME280;64571;47.512;19.054;2023-06-10T02:18:43;100015.88;;;17.39;91.74
75891;BME280;64571;47.512;19.054;2023-06-10T02:21:45;100029.78;;;17.48;91.85
75891;BME280;64571;47.512;19.054;2023-06-10T02:24:48;100042.19;;;17.47;92.02
75891;BME280;64571;47.512;19.054;2023-06-10T02:27:51;100036.91;;;17.45;92.01
75891;BME280;64571;47.512;19.054;2023-06-10T02:30:54;100030.84;;;17.43;92.27
75891;BME280;64571;47.512;19.054;2023-06-10T02:33:56;100036.47;;;17.43;92.37
75891;BME280;64571;47.512;19.054;2023-06-10T02:36:59;100030.37;;;17.41;92.52
75891;BME280;64571;47.512;19.054;2023-06-10T02:40:02;100011.19;;;17.31;92.57
75891;BME280;64571;47.512;19.054;2023-06-10T02:43:06;100034.81;;;17.42;92.56
75891;BME280;64571;47.512;19.054;2023-06-10T02:46:09;100015.41;;;17.25;92.95
75891;BME280;64571;47.512;19.054;2023-06-10T02:49:12;100031.22;;;17.30;93.36
75891;BME280;64571;47.512;19.054;2023-06-10T02:52:15;100034.16;;;17.21;93.79
75891;BME280;64571;47.512;19.054;2023-06-10T02:55:18;100026.66;;;17.13;93.85
75891;BME280;64571;47.512;19.054;2023-06-10T02:58:21;100035.78;;;17.22;94.02
75891;BME280;64571;47.512;19.054;2023-06-10T03:01:25;100021.03;;;17.13;93.98
75891;BME280;64571;47.512;19.054;2023-06-10T03:04:29;100043.72;;;17.20;94.11
75891;BME280;64571;47.512;19.054;2023-06-10T03:07:33;100046.87;;;17.18;93.92
75891;BME280;64571;47.512;19.054;2023-06-10T03:10:37;100044.66;;;17.24;93.71
75891;BME280;64571;47.512;19.054;2023-06-10T03:13:40;100046.19;;;17.34;93.38
75891;BME280;64571;47.512;19.054;2023-06-10T03:16:43;100047.13;;;17.26;92.73
75891;BME280;64571;47.512;19.054;2023-06-10T03:19:46;100052.88;;;17.29;92.40
75891;BME280;64571;47.512;19.054;2023-06-10T03:22:49;100048.41;;;17.40;91.80
75891;BME280;64571;47.512;19.054;2023-06-10T03:25:52;100037.66;;;17.30;91.80
75891;BME280;64571;47.512;19.054;2023-06-10T03:28:55;100038.09;;;17.32;91.79
75891;BME280;64571;47.512;19.054;2023-06-10T03:31:58;100043.47;;;17.37;91.65
75891;BME280;64571;47.512;19.054;2023-06-10T03:35:01;100049.56;;;17.52;91.51
75891;BME280;64571;47.512;19.054;2023-06-10T03:38:04;100046.03;;;17.42;91.40
75891;BME280;64571;47.512;19.054;2023-06-10T03:41:07;100049.09;;;17.37;91.68
75891;BME280;64571;47.512;19.054;2023-06-10T03:44:10;100036.91;;;17.45;91.49
75891;BME280;64571;47.512;19.054;2023-06-10T03:47:13;100041.34;;;17.59;91.02
75891;BME280;64571;47.512;19.054;2023-06-10T03:50:16;100037.34;;;17.60;90.99
75891;BME280;64571;47.512;19.054;2023-06-10T03:53:19;100052.34;;;17.76;90.71
75891;BME280;64571;47.512;19.054;2023-06-10T03:56:22;100031.50;;;17.65;90.83
75891;BME280;64571;47.512;19.054;2023-06-10T03:59:25;100048.59;;;17.72;91.03
75891;BME280;64571;47.512;19.054;2023-06-10T04:02:27;100054.22;;;17.60;91.58
75891;BME280;64571;47.512;19.054;2023-06-10T04:05:31;100054.34;;;17.63;91.55
75891;BME280;64571;47.512;19.054;2023-06-10T04:08:33;100049.53;;;17.64;91.71
75891;BME280;64571;47.512;19.054;2023-06-10T04:11:36;100032.34;;;17.53;91.72
75891;BME280;64571;47.512;19.054;2023-06-10T04:14:39;100020.88;;;17.46;92.08
75891;BME280;64571;47.512;19.054;2023-06-10T04:17:43;100032.72;;;17.52;92.16
75891;BME280;64571;47.512;19.054;2023-06-10T04:20:46;100043.47;;;17.62;92.17
75891;BME280;64571;47.512;19.054;2023-06-10T04:23:49;100044.16;;;17.59;92.38
75891;BME280;64571;47.512;19.054;2023-06-10T04:26:52;100050.16;;;17.57;92.48
75891;BME280;64571;47.512;19.054;2023-06-10T04:29:54;100047.09;;;17.62;92.35
75891;BME280;64571;47.512;19.054;2023-06-10T04:32:57;100055.72;;;17.69;91.78
75891;BME280;64571;47.512;19.054;2023-06-10T04:36:00;100043.66;;;17.69;91.29
75891;BME280;64571;47.512;19.054;2023-06-10T04:39:03;100048.13;;;17.70;91.48
75891;BME280;64571;47.512;19.054;2023-06-10T04:42:08;100044.59;;;17.73;91.38
75891;BME280;64571;47.512;19.054;2023-06-10T04:45:12;100035.72;;;17.71;91.05
75891;BME280;64571;47.512;19.054;2023-06-10T04:48:15;100035.50;;;17.76;90.75
75891;BME280;64571;47.512;19.054;2023-06-10T04:51:17;100053.53;;;17.75;90.76
75891;BME280;64571;47.512;19.054;2023-06-10T04:54:20;100044.84;;;17.80;90.62
75891;BME280;64571;47.512;19.054;2023-06-10T04:57:22;100051.53;;;17.88;90.39
75891;BME280;64571;47.512;19.054;2023-06-10T05:00:25;100046.56;;;17.97;90.01
75891;BME280;64571;47.512;19.054;2023-06-10T05:03:28;100032.41;;;17.93;89.58
75891;BME280;64571;47.512;19.054;2023-06-10T05:06:31;100036.69;;;18.03;89.39
75891;BME280;64571;47.512;19.054;2023-06-10T05:09:33;100041.50;;;18.03;89.15
75891;BME280;64571;47.512;19.054;2023-06-10T05:12:36;100046.91;;;17.95;89.28
75891;BME280;64571;47.512;19.054;2023-06-10T05:15:40;100050.91;;;17.94;89.05
75891;BME280;64571;47.512;19.054;2023-06-10T05:18:46;100046.91;;;17.95;88.69
75891;BME280;64571;47.512;19.054;2023-06-10T05:21:49;100058.06;;;18.48;86.94
75891;BME280;64571;47.512;19.054;2023-06-10T05:24:52;100056.72;;;18.58;86.25
75891;BME280;64571;47.512;19.054;2023-06-10T05:27:54;100041.88;;;18.89;85.24
75891;BME280;64571;47.512;19.054;2023-06-10T05:30:57;100066.41;;;19.20;83.59
75891;BME280;64571;47.512;19.054;2023-06-10T05:33:59;100051.16;;;19.72;80.44
75891;BME280;64571;47.512;19.054;2023-06-10T05:37:03;100058.09;;;20.52;77.94
75891;BME280;64571;47.512;19.054;2023-06-10T05:40:06;100054.37;;;20.90;75.81
75891;BME280;64571;47.512;19.054;2023-06-10T05:43:09;100060.59;;;20.99;74.62
75891;BME280;64571;47.512;19.054;2023-06-10T05:46:12;100058.34;;;20.86;74.47
75891;BME280;64571;47.512;19.054;2023-06-10T05:49:15;100046.56;;;21.07;73.53
75891;BME280;64571;47.512;19.054;2023-06-10T05:52:18;100064.00;;;21.58;71.77
75891;BME280;64571;47.512;19.054;2023-06-10T05:55:21;100065.41;;;21.71;70.99
75891;BME280;64571;47.512;19.054;2023-06-10T05:58:24;100059.91;;;21.56;71.63
75891;BME280;64571;47.512;19.054;2023-06-10T06:01:27;100057.06;;;21.82;71.27
75891;BME280;64571;47.512;19.054;2023-06-10T06:04:30;100063.81;;;21.74;71.11
75891;BME280;64571;47.512;19.054;2023-06-10T06:07:32;100060.19;;;21.24;72.21
75891;BME280;64571;47.512;19.054;2023-06-10T06:10:35;100047.53;;;20.91;73.32
75891;BME280;64571;47.512;19.054;2023-06-10T06:13:38;100061.47;;;20.81;74.44
75891;BME280;64571;47.512;19.054;2023-06-10T06:16:41;100061.00;;;20.56;74.82
75891;BME280;64571;47.512;19.054;2023-06-10T06:19:43;100070.34;;;20.60;74.60
75891;BME280;64571;47.512;19.054;2023-06-10T06:22:46;100077.59;;;20.80;74.42
75891;BME280;64571;47.512;19.054;2023-06-10T06:25:48;100070.06;;;20.45;75.53
75891;BME280;64571;47.512;19.054;2023-06-10T06:28:51;100076.28;;;20.16;76.78
75891;BME280;64571;47.512;19.054;2023-06-10T06:31:54;100073.41;;;20.51;75.61
75891;BME280;64571;47.512;19.054;2023-06-10T06:34:57;100075.47;;;20.96;74.45
75891;BME280;64571;47.512;19.054;2023-06-10T06:37:59;100076.78;;;21.26;73.52
75891;BME280;64571;47.512;19.054;2023-06-10T06:41:02;100073.28;;;21.85;71.57
75891;BME280;64571;47.512;19.054;2023-06-10T06:44:08;100083.81;;;21.88;70.96
75891;BME280;64571;47.512;19.054;2023-06-10T06:47:11;100073.84;;;21.68;71.26
75891;BME280;64571;47.512;19.054;2023-06-10T06:50:14;100082.97;;;21.31;72.50
75891;BME280;64571;47.512;19.054;2023-06-10T06:53:17;100089.78;;;20.84;74.05
75891;BME280;64571;47.512;19.054;2023-06-10T06:56:19;100095.16;;;20.70;74.68
75891;BME280;64571;47.512;19.054;2023-06-10T06:59:23;100098.66;;;20.63;75.37
75891;BME280;64571;47.512;19.054;2023-06-10T07:02:27;100105.09;;;20.83;74.78
75891;BME280;64571;47.512;19.054;2023-06-10T07:05:30;100101.53;;;20.86;74.85
75891;BME280;64571;47.512;19.054;2023-06-10T07:08:33;100095.25;;;20.96;74.31
75891;BME280;64571;47.512;19.054;2023-06-10T07:11:36;100093.88;;;20.87;74.43
75891;BME280;64571;47.512;19.054;2023-06-10T07:14:38;100081.56;;;20.98;73.79
75891;BME280;64571;47.512;19.054;2023-06-10T07:17:41;100087.47;;;21.13;73.41
75891;BME280;64571;47.512;19.054;2023-06-10T07:20:44;100078.69;;;20.95;73.92
75891;BME280;64571;47.512;19.054;2023-06-10T07:23:47;100076.41;;;21.27;73.26
75891;BME280;64571;47.512;19.054;2023-06-10T07:26:50;100098.59;;;21.48;72.31
75891;BME280;64571;47.512;19.054;2023-06-10T07:29:53;100076.00;;;21.29;71.96
75891;BME280;64571;47.512;19.054;2023-06-10T07:32:55;100091.25;;;21.43;72.46
75891;BME280;64571;47.512;19.054;2023-06-10T07:35:59;100093.31;;;21.73;71.36
75891;BME280;64571;47.512;19.054;2023-06-10T07:39:01;100097.41;;;22.06;70.24
75891;BME280;64571;47.512;19.054;2023-06-10T07:42:04;100079.16;;;21.99;69.31
75891;BME280;64571;47.512;19.054;2023-06-10T07:45:07;100099.09;;;22.10;69.90
75891;BME280;64571;47.512;19.054;2023-06-10T07:48:11;100089.88;;;22.13;69.82
75891;BME280;64571;47.512;19.054;2023-06-10T07:51:15;100084.59;;;21.85;70.30
75891;BME280;64571;47.512;19.054;2023-06-10T07:54:18;100102.72;;;22.07;70.44
75891;BME280;64571;47.512;19.054;2023-06-10T07:57:20;100093.56;;;22.17;70.14
75891;BME280;64571;47.512;19.054;2023-06-10T08:00:23;100083.03;;;21.61;71.68
75891;BME280;64571;47.512;19.054;2023-06-10T08:03:26;100099.69;;;21.40;72.93
75891;BME280;64571;47.512;19.054;2023-06-10T08:06:28;100098.47;;;21.41;72.89
75891;BME280;64571;47.512;19.054;2023-06-10T08:09:31;100088.03;;;21.45;71.89
75891;BME280;64571;47.512;19.054;2023-06-10T08:12:34;100098.97;;;21.46;72.39
75891;BME280;64571;47.512;19.054;2023-06-10T08:15:37;100091.50;;;21.61;71.76
75891;BME280;64571;47.512;19.054;2023-06-10T08:18:40;100080.34;;;21.98;69.90
75891;BME280;64571;47.512;19.054;2023-06-10T08:21:43;100090.88;;;22.28;69.06
75891;BME280;64571;47.512;19.054;2023-06-10T08:24:45;100081.78;;;22.45;68.41
75891;BME280;64571;47.512;19.054;2023-06-10T08:27:50;100084.75;;;22.93;66.36
75891;BME280;64571;47.512;19.054;2023-06-10T08:30:54;100072.28;;;23.02;65.65
75891;BME280;64571;47.512;19.054;2023-06-10T08:33:59;100083.84;;;23.27;64.78
75891;BME280;64571;47.512;19.054;2023-06-10T08:37:05;100077.50;;;23.44;64.20
75891;BME280;64571;47.512;19.054;2023-06-10T08:40:08;100079.03;;;23.31;64.49
75891;BME280;64571;47.512;19.054;2023-06-10T08:43:22;100073.69;;;23.70;63.39
75891;BME280;64571;47.512;19.054;2023-06-10T08:46:31;100061.09;;;23.67;61.92
75891;BME280;64571;47.512;19.054;2023-06-10T08:49:38;100060.06;;;24.04;60.05
75891;BME280;64571;47.512;19.054;2023-06-10T08:52:44;100055.16;;;23.94;60.46
75891;BME280;64571;47.512;19.054;2023-06-10T08:55:55;100068.09;;;23.84;60.46
75891;BME280;64571;47.512;19.054;2023-06-10T08:59:01;100056.41;;;24.00;59.23
75891;BME280;64571;47.512;19.054;2023-06-10T09:02:04;100060.00;;;23.90;60.46
75891;BME280;64571;47.512;19.054;2023-06-10T09:05:08;100057.13;;;23.86;60.36
75891;BME280;64571;47.512;19.054;2023-06-10T09:08:11;100056.75;;;23.88;60.28
75891;BME280;64571;47.512;19.054;2023-06-10T09:11:14;100057.31;;;24.18;59.68
75891;BME280;64571;47.512;19.054;2023-06-10T09:14:16;100052.22;;;24.60;58.36
75891;BME280;64571;47.512;19.054;2023-06-10T09:17:19;100047.69;;;24.41;58.97
75891;BME280;64571;47.512;19.054;2023-06-10T09:20:22;100030.84;;;24.00;60.45
75891;BME280;64571;47.512;19.054;2023-06-10T09:23:26;100044.00;;;23.64;61.71
75891;BME280;64571;47.512;19.054;2023-06-10T09:26:29;100038.03;;;23.76;61.48
75891;BME280;64571;47.512;19.054;2023-06-10T09:29:52;100027.56;;;23.87;61.38
75891;BME280;64571;47.512;19.054;2023-06-10T09:32:56;100030.84;;;24.00;61.00
75891;BME280;64571;47.512;19.054;2023-06-10T09:36:01;100015.62;;;23.64;61.79
75891;BME280;64571;47.512;19.054;2023-06-10T09:39:05;100020.75;;;23.40;62.38
75891;BME280;64571;47.512;19.054;2023-06-10T09:42:19;100030.84;;;23.96;61.22
75891;BME280;64571;47.512;19.054;2023-06-10T09:45:22;100027.09;;;23.82;61.34
75891;BME280;64571;47.512;19.054;2023-06-10T09:48:25;100024.94;;;24.37;59.78
75891;BME280;64571;47.512;19.054;2023-06-10T09:51:28;100037.44;;;24.25;59.74
75891;BME280;64571;47.512;19.054;2023-06-10T09:54:31;100034.22;;;23.58;62.32
75891;BME280;64571;47.512;19.054;2023-06-10T09:57:34;100017.63;;;23.01;64.47
75891;BME280;64571;47.512;19.054;2023-06-10T10:00:38;100029.78;;;22.64;66.61
75891;BME280;64571;47.512;19.054;2023-06-10T10:03:49;100028.84;;;22.90;66.19
75891;BME280;64571;47.512;19.054;2023-06-10T10:06:52;100035.03;;;23.03;66.01
75891;BME280;64571;47.512;19.054;2023-06-10T10:09:55;100035.97;;;22.77;67.28
75891;BME280;64571;47.512;19.054;2023-06-10T10:12:57;100023.47;;;22.82;66.82
75891;BME280;64571;47.512;19.054;2023-06-10T10:16:04;100036.56;;;22.93;66.97
75891;BME280;64571;47.512;19.054;2023-06-10T10:19:20;100044.72;;;22.98;66.56
75891;BME280;64571;47.512;19.054;2023-06-10T10:22:26;100039.06;;;22.98;65.26
75891;BME280;64571;47.512;19.054;2023-06-10T10:25:34;100022.12;;;23.09;63.95
75891;BME280;64571;47.512;19.054;2023-06-10T10:29:01;100030.22;;;23.07;63.81
75891;BME280;64571;47.512;19.054;2023-06-10T10:32:08;100028.41;;;23.98;61.65
75891;BME280;64571;47.512;19.054;2023-06-10T10:35:20;100025.12;;;23.89;60.16
75891;BME280;64571;47.512;19.054;2023-06-10T10:38:27;100006.78;;;23.69;59.89
75891;BME280;64571;47.512;19.054;2023-06-10T10:41:31;100014.47;;;23.68;60.14
75891;BME280;64571;47.512;19.054;2023-06-10T10:44:36;100017.63;;;23.63;60.60
75891;BME280;64571;47.512;19.054;2023-06-10T10:47:41;99997.06;;;23.70;60.24
75891;BME280;64571;47.512;19.054;2023-06-10T10:50:56;100014.66;;;24.08;59.93
75891;BME280;64571;47.512;19.054;2023-06-10T10:54:14;100009.87;;;24.33;60.55
75891;BME280;64571;47.512;19.054;2023-06-10T10:57:18;100002.66;;;24.46;59.95
75891;BME280;64571;47.512;19.054;2023-06-10T11:00:44;99989.66;;;24.45;59.74
75891;BME280;64571;47.512;19.054;2023-06-10T11:03:48;99980.34;;;24.73;58.13
75891;BME280;64571;47.512;19.054;2023-06-10T11:06:52;99986.37;;;25.61;56.06
75891;BME280;64571;47.512;19.054;2023-06-10T11:10:10;99988.00;;;25.66;53.97
75891;BME280;64571;47.512;19.054;2023-06-10T11:13:13;99977.72;;;26.08;53.44
75891;BME280;64571;47.512;19.054;2023-06-10T11:16:19;99972.53;;;25.81;52.51
75891;BME280;64571;47.512;19.054;2023-06-10T11:19:32;99977.28;;;26.13;52.14
75891;BME280;64571;47.512;19.054;2023-06-10T11:22:59;99954.97;;;25.93;52.75
75891;BME280;64571;47.512;19.054;2023-06-10T11:26:16;99962.06;;;25.24;54.86
75891;BME280;64571;47.512;19.054;2023-06-10T11:29:19;99964.13;;;25.24;55.61
75891;BME280;64571;47.512;19.054;2023-06-10T11:32:29;99966.53;;;24.79;58.19
75891;BME280;64571;47.512;19.054;2023-06-10T11:35:36;99979.09;;;24.49;59.79
75891;BME280;64571;47.512;19.054;2023-06-10T11:38:40;99966.81;;;24.20;61.73
75891;BME280;64571;47.512;19.054;2023-06-10T11:41:43;99975.75;;;24.19;61.66
75891;BME280;64571;47.512;19.054;2023-06-10T11:44:52;99964.78;;;24.14;61.57
75891;BME280;64571;47.512;19.054;2023-06-10T11:47:59;99955.06;;;24.15;60.81
75891;BME280;64571;47.512;19.054;2023-06-10T11:51:08;99968.44;;;24.21;60.17
75891;BME280;64571;47.512;19.054;2023-06-10T11:54:11;99954.66;;;24.31;59.86
75891;BME280;64571;47.512;19.054;2023-06-10T11:57:14;99952.34;;;24.86;57.77
75891;BME280;64571;47.512;19.054;2023-06-10T12:00:16;99954.34;;;25.25;56.68
75891;BME280;64571;47.512;19.054;2023-06-10T12:03:20;99944.19;;;25.02;57.27
75891;BME280;64571;47.512;19.054;2023-06-10T12:06:24;99943.78;;;25.29;56.51
75891;BME280;64571;47.512;19.054;2023-06-10T12:09:29;99950.53;;;25.89;54.81
75891;BME280;64571;47.512;19.054;2023-06-10T12:12:34;99960.56;;;26.22;54.25
75891;BME280;64571;47.512;19.054;2023-06-10T12:15:37;99946.16;;;26.47;52.20
75891;BME280;64571;47.512;19.054;2023-06-10T12:18:39;99941.69;;;26.49;50.88
75891;BME280;64571;47.512;19.054;2023-06-10T12:21:44;99935.53;;;26.55;50.96
75891;BME280;64571;47.512;19.054;2023-06-10T12:25:00;99943.78;;;26.35;51.10
75891;BME280;64571;47.512;19.054;2023-06-10T12:28:04;99926.53;;;26.56;50.96
75891;BME280;64571;47.512;19.054;2023-06-10T12:31:07;99926.03;;;26.72;50.07
75891;BME280;64571;47.512;19.054;2023-06-10T12:34:10;99916.25;;;26.69;49.63
75891;BME280;64571;47.512;19.054;2023-06-10T12:37:13;99906.38;;;26.81;49.53
75891;BME280;64571;47.512;19.054;2023-06-10T12:40:16;99902.22;;;26.44;50.51
75891;BME280;64571;47.512;19.054;2023-06-10T12:43:25;99889.66;;;26.83;48.80
75891;BME280;64571;47.512;19.054;2023-06-10T12:46:36;99897.97;;;27.08;48.32
75891;BME280;64571;47.512;19.054;2023-06-10T12:49:39;99890.19;;;27.16;48.63
75891;BME280;64571;47.512;19.054;2023-06-10T12:52:42;99879.75;;;27.36;47.51
75891;BME280;64571;47.512;19.054;2023-06-10T12:55:45;99887.00;;;27.44;48.34
75891;BME280;64571;47.512;19.054;2023-06-10T12:58:48;99888.63;;;27.08;50.72
75891;BME280;64571;47.512;19.054;2023-06-10T13:01:51;99891.41;;;27.15;51.46
75891;BME280;64571;47.512;19.054;2023-06-10T13:04:54;99880.75;;;26.77;51.20
75891;BME280;64571;47.512;19.054;2023-06-10T13:07:57;99879.03;;;26.39;52.38
75891;BME280;64571;47.512;19.054;2023-06-10T13:11:00;99881.72;;;26.57;51.46
75891;BME280;64571;47.512;19.054;2023-06-10T13:14:04;99881.53;;;26.82;50.31
75891;BME280;64571;47.512;19.054;2023-06-10T13:17:07;99881.72;;;27.01;49.45
75891;BME280;64571;47.512;19.054;2023-06-10T13:20:09;99890.00;;;27.34;48.67
75891;BME280;64571;47.512;19.054;2023-06-10T13:23:13;99887.63;;;27.93;47.14
75891;BME280;64571;47.512;19.054;2023-06-10T13:26:15;99870.94;;;27.23;48.32
75891;BME280;64571;47.512;19.054;2023-06-10T13:29:19;99882.38;;;26.79;49.49
75891;BME280;64571;47.512;19.054;2023-06-10T13:32:21;99873.75;;;26.34;50.89
75891;BME280;64571;47.512;19.054;2023-06-10T13:35:24;99882.13;;;25.99;52.06
75891;BME280;64571;47.512;19.054;2023-06-10T13:38:27;99874.50;;;25.82;52.97
75891;BME280;64571;47.512;19.054;2023-06-10T13:41:29;99865.28;;;25.49;53.92
75891;BME280;64571;47.512;19.054;2023-06-10T13:44:32;99880.75;;;25.41;54.42
75891;BME280;64571;47.512;19.054;2023-06-10T13:47:36;99884.78;;;25.51;54.22
75891;BME280;64571;47.512;19.054;2023-06-10T13:50:38;99878.25;;;25.54;53.94
75891;BME280;64571;47.512;19.054;2023-06-10T13:53:41;99873.69;;;25.85;53.04
75891;BME280;64571;47.512;19.054;2023-06-10T13:56:44;99884.63;;;25.94;52.49
75891;BME280;64571;47.512;19.054;2023-06-10T13:59:47;99887.94;;;25.82;54.90
75891;BME280;64571;47.512;19.054;2023-06-10T14:02:50;99886.87;;;26.20;54.39
75891;BME280;64571;47.512;19.054;2023-06-10T14:05:53;99877.00;;;25.62;55.22
75891;BME280;64571;47.512;19.054;2023-06-10T14:08:55;99870.38;;;25.90;54.34
75891;BME280;64571;47.512;19.054;2023-06-10T14:11:58;99882.41;;;25.28;56.17
75891;BME280;64571;47.512;19.054;2023-06-10T14:15:01;99884.50;;;24.92;56.27
75891;BME280;64571;47.512;19.054;2023-06-10T14:18:04;99870.66;;;25.19;55.11
75891;BME280;64571;47.512;19.054;2023-06-10T14:21:07;99866.56;;;25.27;55.19
75891;BME280;64571;47.512;19.054;2023-06-10T14:24:09;99880.00;;;25.19;55.71
75891;BME280;64571;47.512;19.054;2023-06-10T14:27:12;99874.31;;;25.12;56.24
75891;BME280;64571;47.512;19.054;2023-06-10T14:30:15;99864.53;;;25.24;55.28
75891;BME280;64571;47.512;19.054;2023-06-10T14:33:18;99871.47;;;25.05;55.76
75891;BME280;64571;47.512;19.054;2023-06-10T14:36:21;99860.50;;;25.11;55.51
75891;BME280;64571;47.512;19.054;2023-06-10T14:39:23;99864.63;;;24.67;57.39
75891;BME280;64571;47.512;19.054;2023-06-10T14:42:26;99869.03;;;25.04;56.98
75891;BME280;64571;47.512;19.054;2023-06-10T14:45:28;99866.63;;;24.88;57.72
75891;BME280;64571;47.512;19.054;2023-06-10T14:48:31;99876.81;;;24.78;58.46
75891;BME280;64571;47.512;19.054;2023-06-10T14:51:33;99867.03;;;24.75;58.61
75891;BME280;64571;47.512;19.054;2023-06-10T14:54:38;99876.41;;;24.47;60.71
75891;BME280;64571;47.512;19.054;2023-06-10T14:57:41;99881.25;;;24.72;60.75
75891;BME280;64571;47.512;19.054;2023-06-10T15:00:44;99877.63;;;24.61;61.72
75891;BME280;64571;47.512;19.054;2023-06-10T15:03:47;99870.31;;;24.45;62.50
75891;BME280;64571;47.512;19.054;2023-06-10T15:06:52;99880.84;;;24.48;63.03
75891;BME280;64571;47.512;19.054;2023-06-10T15:09:54;99871.87;;;24.25;64.22
75891;BME280;64571;47.512;19.054;2023-06-10T15:12:57;99880.00;;;24.30;64.52
75891;BME280;64571;47.512;19.054;2023-06-10T15:16:00;99884.94;;;24.72;63.42
75891;BME280;64571;47.512;19.054;2023-06-10T15:19:05;99884.84;;;25.30;61.30
75891;BME280;64571;47.512;19.054;2023-06-10T15:22:10;99885.63;;;25.44;60.62
75891;BME280;64571;47.512;19.054;2023-06-10T15:25:14;99899.91;;;24.94;60.47
75891;BME280;64571;47.512;19.054;2023-06-10T15:28:19;99897.78;;;25.48;59.84
75891;BME280;64571;47.512;19.054;2023-06-10T15:31:22;99897.91;;;24.38;70.73
75891;BME280;64571;47.512;19.054;2023-06-10T15:34:24;99903.31;;;23.56;74.66
75891;BME280;64571;47.512;19.054;2023-06-10T15:37:27;99891.25;;;23.04;75.99
75891;BME280;64571;47.512;19.054;2023-06-10T15:40:30;99909.91;;;23.01;76.29
75891;BME280;64571;47.512;19.054;2023-06-10T15:43:33;99907.72;;;22.87;75.29
75891;BME280;64571;47.512;19.054;2023-06-10T15:46:35;99915.03;;;22.88;76.77
75891;BME280;64571;47.512;19.054;2023-06-10T15:49:38;99906.91;;;22.87;76.11
75891;BME280;64571;47.512;19.054;2023-06-10T15:52:40;99908.44;;;22.77;72.68